createdAt,value
2022-12-25T00:02:21.051Z,10.20
2022-12-25T00:04:48.993Z,10.25
2022-12-25T00:07:19.793Z,10.10
2022-12-25T00:09:47.672Z,10.00
2022-12-25T00:12:15.783Z,10.05
2022-12-25T00:14:43.715Z,9.92
2022-12-25T00:17:11.680Z,9.93
2022-12-25T00:19:40.977Z,9.88
2022-12-25T00:22:09.218Z,9.84
2022-12-25T00:24:37.460Z,9.79
2022-12-25T00:27:05.392Z,9.94
2022-12-25T00:29:35.707Z,9.93
2022-12-25T00:32:03.602Z,9.92
2022-12-25T00:34:31.520Z,10.00
2022-12-25T00:37:00.763Z,9.71
2022-12-25T00:39:28.699Z,9.83
2022-12-25T00:42:13.962Z,9.67
2022-12-25T00:44:41.808Z,9.79
2022-12-25T00:47:09.731Z,9.74
2022-12-25T00:49:37.634Z,9.60
2022-12-25T00:52:07.212Z,9.64
2022-12-25T00:54:35.230Z,9.63
2022-12-25T00:57:03.563Z,9.58
2022-12-25T00:59:33.284Z,9.62
2022-12-25T01:02:21.992Z,9.66
2022-12-25T01:04:50.542Z,9.64
2022-12-25T01:07:20.222Z,9.68
2022-12-25T01:10:06.470Z,9.71
2022-12-25T01:12:35.976Z,9.63
2022-12-25T01:15:04.576Z,9.40
2022-12-25T01:17:32.580Z,9.60
2022-12-25T01:20:00.449Z,9.62
2022-12-25T01:22:29.690Z,9.62
2022-12-25T01:24:57.556Z,9.63
2022-12-25T01:27:25.430Z,9.45
2022-12-25T01:29:53.325Z,9.37
2022-12-25T01:32:21.268Z,9.44
2022-12-25T01:34:53.845Z,9.25
2022-12-25T01:37:24.911Z,9.32
2022-12-25T01:39:54.138Z,9.30
2022-12-25T01:42:24.509Z,9.25
2022-12-25T01:45:33.774Z,9.24
2022-12-25T01:48:05.739Z,9.16
2022-12-25T01:50:34.564Z,9.00
2022-12-25T01:53:03.138Z,9.13
2022-12-25T01:55:34.217Z,9.24
2022-12-25T01:58:03.333Z,9.26
2022-12-25T02:00:31.280Z,9.24
2022-12-25T02:03:00.122Z,9.13
2022-12-25T02:05:29.904Z,9.13
2022-12-25T02:08:00.681Z,9.16
2022-12-25T02:10:28.843Z,9.19
2022-12-25T02:12:58.103Z,9.10
2022-12-25T02:15:36.236Z,9.16
2022-12-25T02:18:10.913Z,9.00
2022-12-25T02:20:51.939Z,8.98
2022-12-25T02:24:06.914Z,8.93
2022-12-25T02:27:01.550Z,8.98
2022-12-25T02:29:37.814Z,8.96
2022-12-25T02:32:11.288Z,8.92
2022-12-25T02:34:44.723Z,8.98
2022-12-25T02:37:16.072Z,8.90
2022-12-25T02:39:59.228Z,8.87
2022-12-25T02:43:01.266Z,8.78
2022-12-25T02:45:52.836Z,8.79
2022-12-25T02:48:41.313Z,8.88
2022-12-25T02:51:39.574Z,8.90
2022-12-25T02:54:29.208Z,8.94
2022-12-25T02:57:16.802Z,8.82
2022-12-25T03:00:05.835Z,8.77
2022-12-25T03:02:52.778Z,8.78
2022-12-25T03:05:53.185Z,8.78
2022-12-25T03:08:25.843Z,8.62
2022-12-25T03:11:18.225Z,8.57
2022-12-25T03:13:49.961Z,8.53
2022-12-25T03:16:35.825Z,8.55
2022-12-25T03:19:26.012Z,8.56
2022-12-25T03:22:13.444Z,8.51
2022-12-25T03:24:59.673Z,8.46
2022-12-25T03:27:30.923Z,8.52
2022-12-25T03:30:16.349Z,8.48
2022-12-25T03:32:58.613Z,8.43
2022-12-25T03:35:44.164Z,8.37
2022-12-25T03:38:52.158Z,8.42
2022-12-25T03:41:43.864Z,8.33
2022-12-25T03:44:36.737Z,8.44
2022-12-25T03:47:35.397Z,8.44
2022-12-25T03:50:25.723Z,8.42
2022-12-25T03:53:14.897Z,8.42
2022-12-25T03:56:16.440Z,8.42
2022-12-25T03:59:10.213Z,8.33
2022-12-25T04:01:55.585Z,8.30
2022-12-25T04:04:40.961Z,8.25
2022-12-25T04:07:26.136Z,8.37
2022-12-25T04:10:13.481Z,8.19
2022-12-25T04:12:58.791Z,8.10
2022-12-25T04:15:44.481Z,8.02
2022-12-25T04:18:30.118Z,8.14
2022-12-25T04:21:17.584Z,7.89
2022-12-25T04:24:03.022Z,8.05
2022-12-25T04:26:49.755Z,8.09
2022-12-25T04:29:40.341Z,8.01
2022-12-25T04:32:25.742Z,8.02
2022-12-25T04:35:10.770Z,8.03
2022-12-25T04:37:38.646Z,7.93
2022-12-25T04:40:08.223Z,7.99
2022-12-25T04:42:37.479Z,7.97
2022-12-25T04:45:05.912Z,8.01
2022-12-25T04:47:33.895Z,8.00
2022-12-25T04:50:01.777Z,7.67
2022-12-25T04:52:30.014Z,7.84
2022-12-25T04:54:57.845Z,7.70
2022-12-25T04:57:25.724Z,7.63
2022-12-25T04:59:54.905Z,7.79
2022-12-25T05:02:23.036Z,7.88
2022-12-25T05:04:51.046Z,7.91
2022-12-25T05:07:18.941Z,7.88
2022-12-25T05:09:46.840Z,7.86
2022-12-25T05:12:14.813Z,7.85
2022-12-25T05:14:42.667Z,7.98
2022-12-25T05:17:11.914Z,7.95
2022-12-25T05:19:39.761Z,7.86
2022-12-25T05:22:07.615Z,7.69
2022-12-25T05:24:35.557Z,7.70
2022-12-25T05:27:03.430Z,7.65
2022-12-25T05:29:31.317Z,7.55
2022-12-25T05:31:59.205Z,7.53
2022-12-25T05:34:28.397Z,7.56
2022-12-25T05:36:56.608Z,7.51
2022-12-25T05:39:24.558Z,7.59
2022-12-25T05:41:52.567Z,7.66
2022-12-25T05:44:20.485Z,7.53
2022-12-25T05:46:48.448Z,7.61
2022-12-25T05:49:16.600Z,7.53
2022-12-25T05:51:45.834Z,7.56
2022-12-25T05:54:13.761Z,7.44
2022-12-25T05:56:41.660Z,7.45
2022-12-25T05:59:09.720Z,7.58
2022-12-25T06:01:37.698Z,7.54
2022-12-25T06:04:12.215Z,7.65
2022-12-25T06:06:40.718Z,7.70
2022-12-25T06:09:10.738Z,7.60
2022-12-25T06:11:38.622Z,7.66
2022-12-25T06:14:06.783Z,7.67
2022-12-25T06:16:38.197Z,7.55
2022-12-25T06:19:07.154Z,7.52
2022-12-25T06:21:35.297Z,7.32
2022-12-25T06:24:03.331Z,7.34
2022-12-25T06:26:32.676Z,7.36
2022-12-25T06:29:00.507Z,7.40
2022-12-25T06:31:28.587Z,7.45
2022-12-25T06:33:56.654Z,7.50
2022-12-25T06:36:26.895Z,7.42
2022-12-25T06:38:55.120Z,7.34
2022-12-25T06:41:24.903Z,7.24
2022-12-25T06:43:56.633Z,6.94
2022-12-25T06:46:27.012Z,7.01
2022-12-25T06:48:55.519Z,7.33
2022-12-25T06:51:25.716Z,7.30
2022-12-25T06:53:54.941Z,7.41
2022-12-25T06:56:25.319Z,7.40
2022-12-25T06:58:56.772Z,7.35
2022-12-25T07:01:27.166Z,7.18
2022-12-25T07:03:58.053Z,7.10
2022-12-25T07:06:25.938Z,7.19
2022-12-25T07:08:54.228Z,7.30
2022-12-25T07:11:22.158Z,7.25
2022-12-25T07:13:50.245Z,7.25
2022-12-25T07:16:20.196Z,7.22
2022-12-25T07:18:48.185Z,7.01
2022-12-25T07:21:17.678Z,7.24
2022-12-25T07:23:46.526Z,7.42
2022-12-25T07:26:14.797Z,7.42
2022-12-25T07:28:42.942Z,7.21
2022-12-25T07:31:13.706Z,6.97
2022-12-25T07:33:43.610Z,7.19
2022-12-25T07:36:12.801Z,7.13
2022-12-25T07:38:41.744Z,7.19
2022-12-25T07:41:10.607Z,7.16
2022-12-25T07:43:38.785Z,7.03
2022-12-25T07:46:07.051Z,7.09
2022-12-25T07:48:35.171Z,7.30
2022-12-25T07:51:06.589Z,7.41
2022-12-25T07:53:35.287Z,7.36
2022-12-25T07:56:05.977Z,7.32
2022-12-25T07:58:34.313Z,7.44
2022-12-25T08:01:05.395Z,7.45
2022-12-25T08:03:33.983Z,7.52
2022-12-25T08:06:05.009Z,7.65
2022-12-25T08:08:33.541Z,7.55
2022-12-25T08:11:01.583Z,7.59
2022-12-25T08:13:31.801Z,7.60
2022-12-25T08:16:00.517Z,7.77
2022-12-25T08:18:30.410Z,7.61
2022-12-25T08:21:05.006Z,7.54
2022-12-25T08:23:35.869Z,7.63
2022-12-25T08:26:05.921Z,7.54
2022-12-25T08:28:34.416Z,7.55
2022-12-25T08:31:07.439Z,7.60
2022-12-25T08:33:35.919Z,7.49
2022-12-25T08:36:06.637Z,7.82
2022-12-25T08:38:34.766Z,7.89
2022-12-25T08:41:02.934Z,7.77
2022-12-25T08:43:30.815Z,7.17
2022-12-25T08:45:58.784Z,7.53
2022-12-25T08:48:26.910Z,7.42
2022-12-25T08:50:55.168Z,7.43
2022-12-25T08:53:24.656Z,7.23
2022-12-25T08:55:58.605Z,7.30
2022-12-25T08:58:26.940Z,7.43
2022-12-25T09:00:55.147Z,7.31
2022-12-25T09:03:23.923Z,6.77
2022-12-25T09:05:52.316Z,6.79
2022-12-25T09:08:21.700Z,7.20
2022-12-25T09:10:51.067Z,7.43
2022-12-25T09:13:18.941Z,7.41
2022-12-25T09:15:46.875Z,7.50
2022-12-25T09:18:15.323Z,7.64
2022-12-25T09:20:43.267Z,7.25
2022-12-25T09:23:14.057Z,7.59
2022-12-25T09:25:42.313Z,7.86
2022-12-25T09:28:11.544Z,7.52
2022-12-25T09:30:39.463Z,7.67
2022-12-25T09:33:07.411Z,8.00
2022-12-25T09:35:35.379Z,8.12
2022-12-25T09:38:03.209Z,8.00
2022-12-25T09:40:33.364Z,7.82
2022-12-25T09:43:03.127Z,8.03
2022-12-25T09:45:36.835Z,8.03
2022-12-25T09:48:05.235Z,7.94
2022-12-25T09:50:42.183Z,8.02
2022-12-25T09:53:15.898Z,8.34
2022-12-25T09:56:02.558Z,8.55
2022-12-25T09:58:31.419Z,8.54
2022-12-25T10:01:09.018Z,8.49
2022-12-25T10:03:55.976Z,8.26
2022-12-25T10:06:30.666Z,7.55
2022-12-25T10:09:13.367Z,7.91
2022-12-25T10:12:03.057Z,8.25
2022-12-25T10:14:38.836Z,8.20
2022-12-25T10:17:31.121Z,7.90
2022-12-25T10:20:09.163Z,8.18
2022-12-25T10:22:41.570Z,8.44
2022-12-25T10:25:17.848Z,8.70
2022-12-25T10:27:46.731Z,7.69
2022-12-25T10:30:17.107Z,7.77
2022-12-25T10:32:47.803Z,8.16
2022-12-25T10:35:18.737Z,7.81
2022-12-25T10:37:55.125Z,7.93
2022-12-25T10:40:33.149Z,8.22
2022-12-25T10:43:08.921Z,8.56
2022-12-25T10:45:44.793Z,8.10
2022-12-25T10:48:22.755Z,8.10
2022-12-25T10:50:51.449Z,8.36
2022-12-25T10:53:25.100Z,8.69
2022-12-25T10:56:01.471Z,8.43
2022-12-25T10:58:30.479Z,7.97
2022-12-25T11:01:03.497Z,7.92
2022-12-25T11:03:35.158Z,8.38
2022-12-25T11:06:03.806Z,7.55
2022-12-25T11:08:34.846Z,7.73
2022-12-25T11:11:06.430Z,7.64
2022-12-25T11:13:37.352Z,8.18
2022-12-25T11:16:09.708Z,8.25
2022-12-25T11:18:47.094Z,8.25
2022-12-25T11:21:19.708Z,8.71
2022-12-25T11:23:49.890Z,8.91
2022-12-25T11:26:19.378Z,8.40
2022-12-25T11:28:47.623Z,8.36
2022-12-25T11:31:19.429Z,8.25
2022-12-25T11:33:56.545Z,8.17
2022-12-25T11:36:31.171Z,7.76
2022-12-25T11:39:06.741Z,8.04
2022-12-25T11:41:37.160Z,8.17
2022-12-25T11:44:15.815Z,8.17
2022-12-25T11:46:52.259Z,8.13
2022-12-25T11:49:23.133Z,8.04
2022-12-25T11:51:54.794Z,8.01
2022-12-25T11:54:29.329Z,8.02
2022-12-25T11:57:00.445Z,8.46
2022-12-25T11:59:34.317Z,8.61
2022-12-25T12:02:12.731Z,8.27
2022-12-25T12:04:50.128Z,8.54
2022-12-25T12:07:25.113Z,8.24
2022-12-25T12:10:03.464Z,8.04
2022-12-25T12:12:39.711Z,8.22
2022-12-25T12:15:20.122Z,8.46
2022-12-25T12:17:48.757Z,8.80
2022-12-25T12:20:30.631Z,8.88
2022-12-25T12:22:59.962Z,9.17
2022-12-25T12:25:28.984Z,9.22
2022-12-25T12:28:04.942Z,8.67
2022-12-25T12:30:36.629Z,8.79
2022-12-25T12:33:07.839Z,8.50
2022-12-25T12:35:40.572Z,8.46
2022-12-25T12:38:15.815Z,8.38
2022-12-25T12:40:52.001Z,8.54
2022-12-25T12:43:30.981Z,8.56
2022-12-25T12:46:03.171Z,8.68
2022-12-25T12:48:38.395Z,8.78
2022-12-25T12:51:09.691Z,8.78
2022-12-25T12:53:39.269Z,8.77
2022-12-25T12:56:16.447Z,8.90
2022-12-25T12:58:49.986Z,9.26
2022-12-25T13:01:38.451Z,9.47
2022-12-25T13:04:38.407Z,9.18
2022-12-25T13:07:20.473Z,9.24
2022-12-25T13:10:04.825Z,9.45
2022-12-25T13:12:32.753Z,9.39
2022-12-25T13:15:01.725Z,9.05
2022-12-25T13:17:31.494Z,9.19
2022-12-25T13:20:02.288Z,8.85
2022-12-25T13:22:35.117Z,8.89
2022-12-25T13:25:07.780Z,9.11
2022-12-25T13:27:36.111Z,9.18
2022-12-25T13:30:14.347Z,9.41
2022-12-25T13:32:45.786Z,9.49
2022-12-25T13:35:15.231Z,9.08
2022-12-25T13:37:46.091Z,9.42
2022-12-25T13:40:22.184Z,9.09
2022-12-25T13:42:50.144Z,8.91
2022-12-25T13:45:23.899Z,9.16
2022-12-25T13:47:55.393Z,8.89
2022-12-25T13:50:25.715Z,9.01
2022-12-25T13:52:57.532Z,8.91
2022-12-25T13:55:27.646Z,9.19
2022-12-25T13:57:57.783Z,9.12
2022-12-25T14:00:31.214Z,9.34
2022-12-25T14:03:00.210Z,9.23
2022-12-25T14:05:34.741Z,9.32
2022-12-25T14:08:18.666Z,9.20
2022-12-25T14:10:50.257Z,9.37
2022-12-25T14:13:20.719Z,9.48
2022-12-25T14:15:49.799Z,9.41
2022-12-25T14:18:19.305Z,9.20
2022-12-25T14:21:00.076Z,9.42
2022-12-25T14:23:41.187Z,9.38
2022-12-25T14:26:15.623Z,9.57
2022-12-25T14:28:47.649Z,9.48
2022-12-25T14:31:18.316Z,9.31
2022-12-25T14:33:49.685Z,9.41
2022-12-25T14:36:17.798Z,9.61
2022-12-25T14:38:58.135Z,9.63
2022-12-25T14:41:37.893Z,9.60
2022-12-25T14:44:26.188Z,9.11
2022-12-25T14:47:07.489Z,9.32
2022-12-25T14:49:48.550Z,9.23
2022-12-25T14:52:21.380Z,9.32
2022-12-25T14:54:54.721Z,9.41
2022-12-25T14:57:27.095Z,9.36
2022-12-25T15:00:01.508Z,9.14
2022-12-25T15:02:40.894Z,9.39
2022-12-25T15:05:28.884Z,8.98
2022-12-25T15:08:02.529Z,9.23
2022-12-25T15:13:20.677Z,9.35
2022-12-25T15:15:56.527Z,9.63
2022-12-25T15:18:27.988Z,9.31
2022-12-25T15:20:56.954Z,9.68
2022-12-25T15:23:25.657Z,9.67
2022-12-25T15:25:55.028Z,9.89
2022-12-25T15:28:22.960Z,9.60
2022-12-25T15:30:50.950Z,9.45
2022-12-25T15:33:20.299Z,9.70
2022-12-25T15:35:48.891Z,9.83
2022-12-25T15:38:16.805Z,9.81
2022-12-25T15:40:44.817Z,9.93
2022-12-25T15:43:40.255Z,9.75
2022-12-25T15:46:04.758Z,9.82
2022-12-25T15:48:32.633Z,9.79
2022-12-25T15:51:00.546Z,9.67
2022-12-25T15:53:28.427Z,9.73
2022-12-25T15:55:56.356Z,9.68
2022-12-25T15:58:25.617Z,9.71
2022-12-25T16:00:53.381Z,9.83
2022-12-25T16:03:21.205Z,9.94
2022-12-25T16:05:49.351Z,10.03
2022-12-25T16:08:17.228Z,9.79
2022-12-25T16:10:45.165Z,9.81
2022-12-25T16:13:13.562Z,10.01
2022-12-25T16:15:42.842Z,9.76
2022-12-25T16:18:11.478Z,9.96
2022-12-25T16:20:39.454Z,9.98
2022-12-25T16:23:07.324Z,9.78
2022-12-25T16:25:35.185Z,10.00
2022-12-25T16:28:03.762Z,10.21
2022-12-25T16:30:31.950Z,10.22
2022-12-25T16:33:01.201Z,10.02
2022-12-25T16:35:29.238Z,10.25
2022-12-25T16:37:57.126Z,10.21
2022-12-25T16:40:25.011Z,10.36
2022-12-25T16:42:52.914Z,10.19
2022-12-25T16:45:21.036Z,10.09
2022-12-25T16:47:48.943Z,10.30
2022-12-25T16:50:18.339Z,10.12
2022-12-25T16:52:46.240Z,9.98
2022-12-25T16:55:14.255Z,10.18
2022-12-25T16:57:42.129Z,10.14
2022-12-25T17:00:11.684Z,10.29
2022-12-25T17:02:39.718Z,10.17
2022-12-25T17:05:08.765Z,10.11
2022-12-25T17:07:39.063Z,9.93
2022-12-25T17:10:09.704Z,9.73
2022-12-25T17:12:37.571Z,10.24
2022-12-25T17:15:07.140Z,10.13
2022-12-25T17:17:34.987Z,10.20
2022-12-25T17:20:03.908Z,10.49
2022-12-25T17:22:32.367Z,10.29
2022-12-25T17:25:01.752Z,10.16
2022-12-25T17:27:29.847Z,9.97
2022-12-25T17:29:57.940Z,9.85
2022-12-25T17:32:26.118Z,10.14
2022-12-25T17:34:53.999Z,10.26
2022-12-25T17:37:21.895Z,10.30
2022-12-25T17:39:49.963Z,10.49
2022-12-25T17:42:19.488Z,10.32
2022-12-25T17:44:47.510Z,10.39
2022-12-25T17:47:15.460Z,10.59
2022-12-25T17:49:43.342Z,10.25
2022-12-25T17:52:11.343Z,10.20
2022-12-25T17:54:40.866Z,10.27
2022-12-25T17:57:08.976Z,10.21
2022-12-25T17:59:39.639Z,10.02
2022-12-25T18:02:08.141Z,10.25
2022-12-25T18:04:36.245Z,10.32
2022-12-25T18:07:04.419Z,10.20
2022-12-25T18:09:32.526Z,10.19
2022-12-25T18:12:01.298Z,10.35
2022-12-25T18:14:29.208Z,10.21
2022-12-25T18:17:01.285Z,10.57
2022-12-25T18:19:29.241Z,10.11
2022-12-25T18:21:59.666Z,10.49
2022-12-25T18:24:28.570Z,10.65
2022-12-25T18:26:56.576Z,10.67
2022-12-25T18:29:24.549Z,10.84
2022-12-25T18:31:52.800Z,10.52
2022-12-25T18:34:24.121Z,10.85
2022-12-25T18:36:52.447Z,10.35
2022-12-25T18:39:20.519Z,10.63
2022-12-25T18:42:17.178Z,10.33
2022-12-25T18:44:45.664Z,10.55
2022-12-25T18:47:16.086Z,10.55
2022-12-25T18:49:45.615Z,10.79
2022-12-25T18:52:49.217Z,10.56
2022-12-25T18:55:02.430Z,10.68
2022-12-25T18:57:33.254Z,10.43
2022-12-25T19:00:02.935Z,10.38
2022-12-25T19:02:31.482Z,10.53
2022-12-25T19:05:01.059Z,10.16
2022-12-25T19:07:29.506Z,10.46
2022-12-25T19:09:57.661Z,10.75
2022-12-25T19:12:25.974Z,10.91
2022-12-25T19:14:54.042Z,10.59
2022-12-25T19:17:31.173Z,10.73
2022-12-25T19:20:01.203Z,10.20
2022-12-25T19:22:29.318Z,10.79
2022-12-25T19:24:57.605Z,10.43
2022-12-25T19:27:26.235Z,10.79
2022-12-25T19:29:54.241Z,10.59
2022-12-25T19:32:22.248Z,10.66
2022-12-25T19:34:50.440Z,10.62
2022-12-25T19:37:20.704Z,10.55
2022-12-25T19:39:48.848Z,10.36
2022-12-25T19:42:19.195Z,10.67
2022-12-25T19:44:47.374Z,10.54
2022-12-25T19:47:15.336Z,10.49
2022-12-25T19:49:44.710Z,10.80
2022-12-25T19:52:14.548Z,10.85
2022-12-25T19:54:44.064Z,10.64
2022-12-25T19:57:11.992Z,11.01
2022-12-25T19:59:41.437Z,11.03
2022-12-25T20:02:10.580Z,10.52
2022-12-25T20:04:38.722Z,10.88
2022-12-25T20:07:06.645Z,10.94
2022-12-25T20:09:35.467Z,11.08
2022-12-25T20:12:05.767Z,10.51
2022-12-25T20:14:33.860Z,10.41
2022-12-25T20:17:01.853Z,10.70
2022-12-25T20:19:29.891Z,11.13
2022-12-25T20:21:58.783Z,11.06
2022-12-25T20:24:27.089Z,11.03
2022-12-25T20:26:59.017Z,11.20
2022-12-25T20:29:31.325Z,11.03
2022-12-25T20:31:59.391Z,11.16
2022-12-25T20:34:27.298Z,11.18
2022-12-25T20:36:57.375Z,11.18
2022-12-25T20:39:25.235Z,10.89
2022-12-25T20:41:53.079Z,11.05
2022-12-25T20:44:20.943Z,11.04
2022-12-25T20:46:50.166Z,11.17
2022-12-25T20:49:18.687Z,11.33
2022-12-25T20:51:46.570Z,11.22
2022-12-25T20:54:14.881Z,11.14
2022-12-25T20:56:42.955Z,11.28
2022-12-25T20:59:11.783Z,11.17
2022-12-25T21:01:42.161Z,11.08
2022-12-25T21:04:16.009Z,10.96
2022-12-25T21:06:44.532Z,11.23
2022-12-25T21:09:12.424Z,11.43
2022-12-25T21:11:40.727Z,11.39
2022-12-25T21:14:08.626Z,11.31
2022-12-25T21:16:36.562Z,11.44
2022-12-25T21:19:04.492Z,11.28
2022-12-25T21:21:35.883Z,11.20
2022-12-25T21:24:03.807Z,11.40
2022-12-25T21:26:31.862Z,11.34
2022-12-25T21:29:02.549Z,11.44
2022-12-25T21:31:31.207Z,11.52
2022-12-25T21:33:58.220Z,11.28
2022-12-25T21:36:28.266Z,11.47
2022-12-25T21:38:59.351Z,11.05
2022-12-25T21:41:28.430Z,11.37
2022-12-25T21:43:57.201Z,11.27
2022-12-25T21:46:25.669Z,11.52
2022-12-25T21:48:54.386Z,11.68
2022-12-25T21:51:42.699Z,11.71
2022-12-25T21:54:12.859Z,11.63
2022-12-25T21:56:44.834Z,11.89
2022-12-25T21:59:15.355Z,11.91
2022-12-25T22:01:44.421Z,11.90
2022-12-25T22:04:13.826Z,11.82
2022-12-25T22:06:59.288Z,11.75
2022-12-25T22:09:28.818Z,11.51
2022-12-25T22:12:15.671Z,11.80
2022-12-25T22:14:56.324Z,11.81
2022-12-25T22:17:44.599Z,11.39
2022-12-25T22:20:15.235Z,11.81
2022-12-25T22:22:43.342Z,11.71
2022-12-25T22:25:13.546Z,11.74
2022-12-25T22:27:42.603Z,11.74
2022-12-25T22:30:12.961Z,11.85
2022-12-25T22:32:41.417Z,11.93
2022-12-25T22:35:10.148Z,12.02
2022-12-25T22:37:39.108Z,12.10
2022-12-25T22:40:09.335Z,11.87
2022-12-25T22:42:38.670Z,11.85
2022-12-25T22:45:07.229Z,11.74
2022-12-25T22:47:35.208Z,11.98
2022-12-25T22:50:03.241Z,11.81
2022-12-25T22:52:31.153Z,12.08
2022-12-25T22:54:58.987Z,12.16
2022-12-25T22:57:26.854Z,12.13
2022-12-25T22:59:56.144Z,12.15
2022-12-25T23:02:24.117Z,11.92
2022-12-25T23:04:52.164Z,12.31
2022-12-25T23:07:21.243Z,12.11
2022-12-25T23:09:49.157Z,12.38
2022-12-25T23:12:30.918Z,12.22
2022-12-25T23:15:00.188Z,12.42
2022-12-25T23:17:45.640Z,12.36
2022-12-25T23:20:32.963Z,12.39
2022-12-25T23:23:18.810Z,12.17
2022-12-25T23:26:04.327Z,12.02
2022-12-25T23:28:49.569Z,12.32
2022-12-25T23:31:18.979Z,12.49
2022-12-25T23:33:47.157Z,12.40
2022-12-25T23:36:15.039Z,12.41
2022-12-25T23:38:43.007Z,12.16
2022-12-25T23:41:10.851Z,12.20
2022-12-25T23:43:38.796Z,12.48
2022-12-25T23:46:06.997Z,12.59
2022-12-25T23:48:36.216Z,12.52
2022-12-25T23:51:05.021Z,12.39
2022-12-25T23:53:33.970Z,12.54
2022-12-25T23:56:02.036Z,12.56
2022-12-25T23:58:31.443Z,12.58
